createdAt,value
2024-02-05T00:00:53.995Z,99277.83
2024-02-05T00:04:27.803Z,99286.36
2024-02-05T00:07:57.696Z,99291.77
2024-02-05T00:11:25.211Z,99284.58
2024-02-05T00:14:50.940Z,99276.20
2024-02-05T00:18:17.328Z,99279.46
2024-02-05T00:21:43.300Z,99273.71
2024-02-05T00:25:11.313Z,99272.56
2024-02-05T00:28:37.424Z,99277.98
2024-02-05T00:32:03.534Z,99268.59
2024-02-05T00:35:29.767Z,99263.37
2024-02-05T00:38:56.413Z,99257.36
2024-02-05T00:42:22.465Z,99266.11
2024-02-05T00:45:48.823Z,99269.85
2024-02-05T00:49:14.986Z,99267.73
2024-02-05T00:52:40.799Z,99268.64
2024-02-05T00:56:08.089Z,99267.29
2024-02-05T00:59:35.385Z,99262.20
2024-02-05T01:03:01.562Z,99265.56
2024-02-05T01:06:27.983Z,99260.00
2024-02-05T01:09:54.201Z,99250.44
2024-02-05T01:13:20.540Z,99248.39
2024-02-05T01:16:46.340Z,99237.42
2024-02-05T01:20:13.363Z,99233.84
2024-02-05T01:23:39.847Z,99234.66
2024-02-05T01:27:06.373Z,99241.81
2024-02-05T01:30:32.153Z,99231.08
2024-02-05T01:33:58.037Z,99235.20
2024-02-05T01:37:24.498Z,99233.20
2024-02-05T01:40:50.701Z,99221.79
2024-02-05T01:44:16.537Z,99215.88
2024-02-05T01:47:43.798Z,99210.59
2024-02-05T01:51:10.014Z,99204.35
2024-02-05T01:54:38.255Z,99204.95
2024-02-05T01:58:04.152Z,99187.42
2024-02-05T02:01:31.617Z,99182.16
2024-02-05T02:04:58.762Z,99173.30
2024-02-05T02:08:30.481Z,99165.80
2024-02-05T02:11:56.609Z,99177.73
2024-02-05T02:15:22.575Z,99173.64
2024-02-05T02:18:50.360Z,99159.27
2024-02-05T02:22:22.862Z,99162.53
2024-02-05T02:25:52.392Z,99153.04
2024-02-05T02:29:18.578Z,99152.81
2024-02-05T02:32:50.833Z,99150.21
2024-02-05T02:36:25.858Z,99148.25
2024-02-05T02:40:01.279Z,99146.59
2024-02-05T02:43:29.377Z,99144.29
2024-02-05T02:46:59.248Z,99147.02
2024-02-05T02:50:26.323Z,99148.09
2024-02-05T02:53:53.064Z,99155.73
2024-02-05T02:57:19.077Z,99151.92
2024-02-05T03:00:45.439Z,99147.82
2024-02-05T03:04:12.008Z,99142.89
2024-02-05T03:07:38.220Z,99130.61
2024-02-05T03:11:05.978Z,99134.48
2024-02-05T03:14:31.952Z,99138.94
2024-02-05T03:17:59.553Z,99132.16
2024-02-05T03:21:25.591Z,99120.23
2024-02-05T03:24:52.067Z,99112.63
2024-02-05T03:28:18.426Z,99108.64
2024-02-05T03:31:45.876Z,99110.08
2024-02-05T03:35:14.055Z,99101.89
2024-02-05T03:38:40.346Z,99109.59
2024-02-05T03:42:06.574Z,99112.77
2024-02-05T03:45:33.246Z,99108.80
2024-02-05T03:48:59.494Z,99120.58
2024-02-05T03:52:26.014Z,99124.45
2024-02-05T03:55:52.254Z,99109.75
2024-02-05T03:59:18.450Z,99114.78
2024-02-05T04:02:45.027Z,99111.73
2024-02-05T04:06:11.828Z,99096.31
2024-02-05T04:09:40.195Z,99089.67
2024-02-05T04:13:06.410Z,99090.65
2024-02-05T04:16:32.934Z,99090.78
2024-02-05T04:19:59.384Z,99098.87
2024-02-05T04:23:27.007Z,99109.07
2024-02-05T04:26:52.982Z,99111.64
2024-02-05T04:30:30.359Z,99116.27
2024-02-05T04:33:56.470Z,99120.13
2024-02-05T04:37:22.900Z,99119.42
2024-02-05T04:40:48.996Z,99113.94
2024-02-05T04:44:15.928Z,99122.52
2024-02-05T04:47:42.792Z,99130.96
2024-02-05T04:51:14.020Z,99116.84
2024-02-05T04:54:39.789Z,99128.12
2024-02-05T04:58:06.406Z,99134.80
2024-02-05T05:01:33.712Z,99132.55
2024-02-05T05:05:00.170Z,99128.27
2024-02-05T05:08:26.885Z,99148.58
2024-02-05T05:11:53.105Z,99144.39
2024-02-05T05:15:19.716Z,99142.64
2024-02-05T05:18:46.074Z,99147.77
2024-02-05T05:22:12.214Z,99131.08
2024-02-05T05:25:39.458Z,99140.07
2024-02-05T05:29:05.697Z,99146.14
2024-02-05T05:32:31.911Z,99156.48
2024-02-05T05:35:58.165Z,99159.45
2024-02-05T05:39:23.992Z,99161.68
2024-02-05T05:42:50.303Z,99167.20
2024-02-05T05:46:16.280Z,99173.40
2024-02-05T05:49:43.063Z,99173.45
2024-02-05T05:53:09.615Z,99176.05
2024-02-05T05:56:35.987Z,99171.71
2024-02-05T06:00:05.189Z,99176.87
2024-02-05T06:03:32.355Z,99181.17
2024-02-05T06:07:01.553Z,99181.02
2024-02-05T06:10:28.630Z,99192.34
2024-02-05T06:13:55.059Z,99195.04
2024-02-05T06:17:21.374Z,99197.04
2024-02-05T06:20:48.328Z,99194.73
2024-02-05T06:24:16.257Z,99195.54
2024-02-05T06:27:42.701Z,99201.45
2024-02-05T06:31:11.175Z,99200.63
2024-02-05T06:34:37.228Z,99206.23
2024-02-05T06:38:03.299Z,99214.33
2024-02-05T06:41:32.289Z,99218.61
2024-02-05T06:44:58.449Z,99224.77
2024-02-05T06:48:24.554Z,99232.30
2024-02-05T06:51:50.482Z,99217.42
2024-02-05T06:55:16.737Z,99216.80
2024-02-05T06:58:42.858Z,99218.86
2024-02-05T07:02:10.814Z,99215.43
2024-02-05T07:05:37.724Z,99218.25
2024-02-05T07:09:03.815Z,99218.36
2024-02-05T07:12:30.268Z,99223.27
2024-02-05T07:15:56.306Z,99220.46
2024-02-05T07:19:24.182Z,99226.83
2024-02-05T07:22:51.737Z,99225.39
2024-02-05T07:26:17.759Z,99228.14
2024-02-05T07:29:44.703Z,99233.10
2024-02-05T07:33:10.445Z,99238.81
2024-02-05T07:36:36.768Z,99239.89
2024-02-05T07:40:05.221Z,99246.52
2024-02-05T07:43:31.363Z,99251.00
2024-02-05T07:46:58.141Z,99255.77
2024-02-05T07:50:24.680Z,99255.91
2024-02-05T07:53:51.937Z,99258.22
2024-02-05T07:57:20.526Z,99258.62
2024-02-05T08:00:47.256Z,99260.16
2024-02-05T08:04:13.285Z,99249.31
2024-02-05T08:07:39.686Z,99258.77
2024-02-05T08:11:06.095Z,99261.18
2024-02-05T08:14:31.779Z,99267.04
2024-02-05T08:17:57.776Z,99268.23
2024-02-05T08:21:23.969Z,99274.91
2024-02-05T08:24:49.918Z,99273.64
2024-02-05T08:28:16.190Z,99277.46
2024-02-05T08:31:42.316Z,99277.30
2024-02-05T08:35:10.733Z,99283.21
2024-02-05T08:38:36.836Z,99288.87
2024-02-05T08:42:11.944Z,99295.25
2024-02-05T08:45:42.467Z,99296.05
2024-02-05T08:49:08.828Z,99309.83
2024-02-05T08:52:34.872Z,99313.39
2024-02-05T08:56:00.827Z,99315.72
2024-02-05T08:59:26.810Z,99306.45
2024-02-05T09:02:55.459Z,99322.89
2024-02-05T09:06:21.369Z,99329.98
2024-02-05T09:09:47.464Z,99331.06
2024-02-05T09:13:13.785Z,99336.60
2024-02-05T09:16:39.774Z,99338.45
2024-02-05T09:20:08.388Z,99336.20
2024-02-05T09:23:36.007Z,99334.23
2024-02-05T09:27:01.793Z,99329.09
2024-02-05T09:30:27.524Z,99334.17
2024-02-05T09:33:53.566Z,99336.13
2024-02-05T09:37:19.548Z,99338.42
2024-02-05T09:40:46.122Z,99339.66
2024-02-05T09:44:13.068Z,99344.27
2024-02-05T09:47:43.598Z,99347.42
2024-02-05T09:51:10.555Z,99349.35
2024-02-05T09:54:36.883Z,99344.26
2024-02-05T09:58:03.623Z,99344.36
2024-02-05T10:01:32.128Z,99352.59
2024-02-05T10:05:02.633Z,99354.48
2024-02-05T10:08:30.359Z,99357.68
2024-02-05T10:11:56.779Z,99364.54
2024-02-05T10:15:23.326Z,99375.02
2024-02-05T10:18:49.480Z,99377.44
2024-02-05T10:22:15.738Z,99375.49
2024-02-05T10:25:42.958Z,99377.52
2024-02-05T10:29:13.017Z,99371.71
2024-02-05T10:32:40.894Z,99377.01
2024-02-05T10:36:08.112Z,99372.02
2024-02-05T10:39:34.564Z,99369.61
2024-02-05T10:43:00.431Z,99370.14
2024-02-05T10:46:34.673Z,99366.38
2024-02-05T10:50:01.818Z,99363.57
2024-02-05T10:53:29.227Z,99365.43
2024-02-05T10:56:56.295Z,99360.62
2024-02-05T11:00:24.400Z,99366.55
2024-02-05T11:03:56.451Z,99368.42
2024-02-05T11:07:25.843Z,99364.19
2024-02-05T11:10:56.771Z,99364.66
2024-02-05T11:14:23.435Z,99365.42
2024-02-05T11:17:51.057Z,99369.15
2024-02-05T11:21:21.279Z,99370.56
2024-02-05T11:24:48.460Z,99375.89
2024-02-05T11:28:15.667Z,99373.73
2024-02-05T11:31:43.154Z,99375.05
2024-02-05T11:35:15.384Z,99376.71
2024-02-05T11:38:43.661Z,99380.39
2024-02-05T11:42:13.041Z,99378.60
2024-02-05T11:45:39.408Z,99373.04
2024-02-05T11:49:06.334Z,99375.73
2024-02-05T11:52:36.119Z,99377.62
2024-02-05T11:56:02.106Z,99373.46
2024-02-05T11:59:30.403Z,99367.93
2024-02-05T12:02:57.478Z,99365.63
2024-02-05T12:06:26.756Z,99373.61
2024-02-05T12:09:52.880Z,99366.56
2024-02-05T12:13:20.600Z,99369.21
2024-02-05T12:16:46.794Z,99371.88
2024-02-05T12:20:18.433Z,99379.69
2024-02-05T12:23:44.176Z,99380.36
2024-02-05T12:27:10.842Z,99389.48
2024-02-05T12:30:36.976Z,99390.21
2024-02-05T12:34:03.311Z,99395.31
2024-02-05T12:37:30.545Z,99390.31
2024-02-05T12:40:57.465Z,99394.84
2024-02-05T12:44:31.363Z,99392.86
2024-02-05T12:48:06.739Z,99398.57
2024-02-05T12:51:34.502Z,99401.34
2024-02-05T12:55:00.643Z,99399.15
2024-02-05T12:58:28.655Z,99407.05
2024-02-05T13:02:01.311Z,99413.73
2024-02-05T13:05:30.331Z,99417.19
2024-02-05T13:09:01.260Z,99420.96
2024-02-05T13:12:27.205Z,99423.89
2024-02-05T13:15:53.602Z,99422.90
2024-02-05T13:19:21.118Z,99416.23
2024-02-05T13:22:47.546Z,99412.86
2024-02-05T13:26:13.624Z,99416.86
2024-02-05T13:29:39.925Z,99421.26
2024-02-05T13:33:07.168Z,99420.30
2024-02-05T13:36:33.323Z,99426.13
2024-02-05T13:39:59.787Z,99428.08
2024-02-05T13:43:26.364Z,99429.21
2024-02-05T13:46:52.645Z,99435.27
2024-02-05T13:50:19.222Z,99435.75
2024-02-05T13:53:45.273Z,99441.65
2024-02-05T13:57:11.292Z,99440.67
2024-02-05T14:00:37.682Z,99443.00
2024-02-05T14:04:03.249Z,99442.34
2024-02-05T14:07:29.301Z,99444.92
2024-02-05T14:10:55.663Z,99444.34
2024-02-05T14:14:21.711Z,99442.59
2024-02-05T14:17:47.551Z,99440.39
2024-02-05T14:21:14.520Z,99438.29
2024-02-05T14:24:40.308Z,99441.02
2024-02-05T14:28:07.443Z,99444.21
2024-02-05T14:31:33.345Z,99442.84
2024-02-05T14:35:00.028Z,99445.17
2024-02-05T14:38:26.162Z,99440.52
2024-02-05T14:41:52.912Z,99441.18
2024-02-05T14:45:19.099Z,99436.90
2024-02-05T14:48:46.931Z,99433.41
2024-02-05T14:52:12.616Z,99432.96
2024-02-05T14:55:39.525Z,99443.45
2024-02-05T14:59:05.616Z,99449.36
2024-02-05T15:02:32.465Z,99448.29
2024-02-05T15:05:58.634Z,99448.08
2024-02-05T15:09:24.563Z,99451.32
2024-02-05T15:12:52.142Z,99454.75
2024-02-05T15:16:18.196Z,99464.15
2024-02-05T15:19:44.586Z,99466.70
2024-02-05T15:23:10.817Z,99468.20
2024-02-05T15:26:37.849Z,99473.73
2024-02-05T15:30:03.730Z,99476.19
2024-02-05T15:33:29.749Z,99477.04
2024-02-05T15:36:55.752Z,99472.69
2024-02-05T15:40:22.537Z,99470.30
2024-02-05T15:43:51.586Z,99470.58
2024-02-05T15:47:18.123Z,99470.32
2024-02-05T15:50:44.217Z,99466.23
2024-02-05T15:54:10.305Z,99468.42
2024-02-05T15:57:38.462Z,99461.58
2024-02-05T16:01:05.952Z,99468.30
2024-02-05T16:04:32.014Z,99466.43
2024-02-05T16:07:59.009Z,99470.70
2024-02-05T16:11:25.878Z,99475.23
2024-02-05T16:14:52.153Z,99477.34
2024-02-05T16:18:17.900Z,99476.08
2024-02-05T16:21:43.883Z,99475.66
2024-02-05T16:25:10.938Z,99478.11
2024-02-05T16:28:37.318Z,99469.66
2024-02-05T16:32:03.290Z,99472.18
2024-02-05T16:35:29.125Z,99473.55
2024-02-05T16:38:55.558Z,99476.86
2024-02-05T16:42:25.953Z,99478.80
2024-02-05T16:45:52.564Z,99476.57
2024-02-05T16:49:19.198Z,99469.23
2024-02-05T16:52:46.024Z,99463.64
2024-02-05T16:56:12.659Z,99463.27
2024-02-05T16:59:38.719Z,99457.41
2024-02-05T17:03:08.002Z,99464.31
2024-02-05T17:06:34.821Z,99459.83
2024-02-05T17:10:00.972Z,99460.09
2024-02-05T17:13:27.380Z,99465.14
2024-02-05T17:16:58.714Z,99459.11
2024-02-05T17:20:26.350Z,99459.95
2024-02-05T17:23:52.523Z,99451.52
2024-02-05T17:27:19.246Z,99444.15
2024-02-05T17:30:45.043Z,99441.71
2024-02-05T17:34:11.784Z,99440.77
2024-02-05T17:37:37.966Z,99441.14
2024-02-05T17:41:04.464Z,99442.50
2024-02-05T17:44:30.204Z,99442.19
2024-02-05T17:47:55.990Z,99441.36
2024-02-05T17:51:22.675Z,99441.45
2024-02-05T17:54:48.545Z,99438.40
2024-02-05T17:58:16.683Z,99441.98
2024-02-05T18:01:42.563Z,99444.86
2024-02-05T18:05:09.725Z,99450.41
2024-02-05T18:08:37.271Z,99453.02
2024-02-05T18:12:04.519Z,99458.78
2024-02-05T18:15:32.315Z,99452.86
2024-02-05T18:18:59.392Z,99449.98
2024-02-05T18:22:25.283Z,99440.64
2024-02-05T18:25:52.515Z,99446.50
2024-02-05T18:29:19.047Z,99443.65
2024-02-05T18:32:45.014Z,99443.13
2024-02-05T18:36:11.628Z,99436.35
2024-02-05T18:39:37.665Z,99432.73
2024-02-05T18:43:03.511Z,99436.71
2024-02-05T18:46:29.546Z,99430.67
2024-02-05T18:49:55.428Z,99436.14
2024-02-05T18:53:21.475Z,99427.42
2024-02-05T18:56:49.450Z,99414.87
2024-02-05T19:00:16.510Z,99411.83
2024-02-05T19:03:43.023Z,99417.23
2024-02-05T19:07:09.617Z,99410.71
2024-02-05T19:10:35.837Z,99406.75
2024-02-05T19:14:02.278Z,99408.38
2024-02-05T19:17:28.801Z,99405.95
2024-02-05T19:20:56.030Z,99407.08
2024-02-05T19:24:21.992Z,99408.10
2024-02-05T19:27:48.200Z,99401.81
2024-02-05T19:31:14.612Z,99400.55
2024-02-05T19:34:40.533Z,99395.19
2024-02-05T19:38:07.242Z,99394.45
2024-02-05T19:41:33.230Z,99388.70
2024-02-05T19:44:59.398Z,99375.48
2024-02-05T19:48:25.934Z,99377.02
2024-02-05T19:51:52.816Z,99376.27
2024-02-05T19:55:23.024Z,99371.55
2024-02-05T19:58:50.136Z,99364.83
2024-02-05T20:02:16.749Z,99361.72
2024-02-05T20:05:42.996Z,99358.54
2024-02-05T20:09:09.022Z,99358.05
2024-02-05T20:12:35.300Z,99351.69
2024-02-05T20:16:02.534Z,99365.20
2024-02-05T20:19:28.866Z,99357.41
2024-02-05T20:22:56.783Z,99353.60
2024-02-05T20:26:23.402Z,99348.45
2024-02-05T20:29:49.476Z,99340.78
2024-02-05T20:33:15.518Z,99338.33
2024-02-05T20:36:42.076Z,99342.81
2024-02-05T20:40:10.347Z,99340.45
2024-02-05T20:43:36.577Z,99329.80
2024-02-05T20:47:02.327Z,99325.89
2024-02-05T20:50:31.062Z,99325.60
2024-02-05T20:53:57.346Z,99322.63
2024-02-05T20:57:23.641Z,99320.24
2024-02-05T21:00:51.447Z,99321.61
2024-02-05T21:04:19.132Z,99322.63
2024-02-05T21:07:45.262Z,99325.70
2024-02-05T21:11:11.428Z,99317.49
2024-02-05T21:14:43.880Z,99324.17
2024-02-05T21:18:11.615Z,99330.66
2024-02-05T21:21:38.617Z,99324.42
2024-02-05T21:25:06.053Z,99326.73
2024-02-05T21:28:32.593Z,99327.55
2024-02-05T21:31:59.313Z,99325.63
2024-02-05T21:35:25.401Z,99324.35
2024-02-05T21:38:51.182Z,99322.38
2024-02-05T21:42:17.166Z,99319.95
2024-02-05T21:45:44.644Z,99312.95
2024-02-05T21:49:11.603Z,99312.02
2024-02-05T21:52:40.275Z,99309.07
2024-02-05T21:56:08.608Z,99314.20
2024-02-05T21:59:34.464Z,99313.96
2024-02-05T22:03:00.380Z,99319.40
2024-02-05T22:06:26.863Z,99313.71
2024-02-05T22:09:53.476Z,99306.29
2024-02-05T22:13:19.921Z,99309.92
2024-02-05T22:16:46.852Z,99316.81
2024-02-05T22:20:17.598Z,99315.67
2024-02-05T22:23:43.621Z,99318.43
2024-02-05T22:27:12.602Z,99320.20
2024-02-05T22:30:38.756Z,99316.86
2024-02-05T22:34:13.195Z,99313.90
2024-02-05T22:37:46.982Z,99312.45
2024-02-05T22:41:12.660Z,99308.86
2024-02-05T22:44:38.727Z,99305.39
2024-02-05T22:48:04.889Z,99301.30
2024-02-05T22:51:31.406Z,99290.17
2024-02-05T22:54:57.519Z,99296.80
2024-02-05T22:58:24.072Z,99310.49
2024-02-05T23:01:50.602Z,99294.12
2024-02-05T23:05:17.763Z,99291.71
2024-02-05T23:08:44.024Z,99289.64
2024-02-05T23:12:11.068Z,99282.22
2024-02-05T23:15:37.571Z,99282.23
2024-02-05T23:19:07.161Z,99275.83
2024-02-05T23:22:34.134Z,99272.02
2024-02-05T23:26:00.647Z,99275.30
2024-02-05T23:29:27.364Z,99270.94
2024-02-05T23:32:56.541Z,99272.67
2024-02-05T23:36:24.313Z,99272.35
2024-02-05T23:39:50.465Z,99268.13
2024-02-05T23:43:16.865Z,99264.29
2024-02-05T23:46:43.242Z,99266.00
2024-02-05T23:50:10.515Z,99261.34
2024-02-05T23:53:36.757Z,99270.05
2024-02-05T23:57:03.397Z,99273.30
